Fulton County Airport Brown Field
KFTY : rendu visible

Aérodrome :











RETROUVEZ-NOUS SUR...

 
LOGIN :

S'inscrire | Disclaimer

   EN    FR    IT 

 









Légende :    VFR   VFR Marginal   IFR   IFR Intensif   IFR Très Intensif
Visi : 
Plafond : 
>= 8 km
>= 3000ft
5 à 8 km
1000 à 3000 ft
1500m à 5 km
500 à 1000 ft
800 à 1500m
200 à 500 ft
< 800m
< 200 ft
Symboles :   Orages  Brouillard  Fortes neiges  Fortes précipitations  Vent > 20 kt






- Altitude de l'aérodrome : 841 ft


KFTY - Fulton County Brown Field

DERNIER METAR :
  • 191153Z VRB04KT 10SM CLR 07/03 A2987 RMK AO2 SLP114 T00670028 10078 20067 53008

METARs EXPIRÉS :
  • 191053Z 27003KT 10SM BKN120 07/03 A2985 RMK AO2 SLP107 T00720028
  • 190953Z 27004KT 10SM OVC110 07/03 A2985 RMK AO2 SLP105 T00720033

TAF KFTY
Valide du 19 à 12h jusqu'au 20 à 12h UTC


191120Z 1912/2012 28005KT P6SM SCT050 BKN080 BKN250
FM191700 28009G17KT P6SM FEW040 SCT080
FM192300 29005KT P6SM FEW050 SCT250



MET'MAP, la Météo Aéronautique d'un coup d'oeil ! - Copyright ORBIFLY Décembre 2007 - Disclaimer

ORBIFLY MET'MAP TEAM :

Programmation & Développement : Alexandra Zaïnal
Conception & Développement : Baudouin d'Aumeries
Co-Programmation & Développement : Marc-Olivier Méhu
Soutien technique & logistique : Manuel Goepfert

Contact : metmap@orbifly.com




SOURCES & CREDITS :

   NOAA       Earth
Advisory